sensor_id;sensor_type;location;lat;lon;timestamp;temperature;humidity
16435;DHT22;8327;51.438;7.026;2022-07-10T00:00:39;15.10;99.90
16435;DHT22;8327;51.438;7.026;2022-07-10T00:01:40;14.90;99.90
16435;DHT22;8327;51.438;7.026;2022-07-10T00:02:41;15.00;99.90
16435;DHT22;8327;51.438;7.026;2022-07-10T00:03:42;15.00;99.90
16435;DHT22;8327;51.438;7.026;2022-07-10T00:04:44;15.00;99.90
16435;DHT22;8327;51.438;7.026;2022-07-10T00:05:44;15.00;99.90
16435;DHT22;8327;51.438;7.026;2022-07-10T00:06:45;15.10;99.90
16435;DHT22;8327;51.438;7.026;2022-07-10T00:07:47;15.10;99.90
16435;DHT22;8327;51.438;7.026;2022-07-10T00:08:47;15.10;99.90
16435;DHT22;8327;51.438;7.026;2022-07-10T00:09:48;15.20;99.90
16435;DHT22;8327;51.438;7.026;2022-07-10T00:10:48;15.10;99.90
16435;DHT22;8327;51.438;7.026;2022-07-10T00:11:49;15.10;99.90
16435;DHT22;8327;51.438;7.026;2022-07-10T00:12:50;15.10;99.90
16435;DHT22;8327;51.438;7.026;2022-07-10T00:13:51;15.00;99.90
16435;DHT22;8327;51.438;7.026;2022-07-10T00:14:51;14.80;99.90
16435;DHT22;8327;51.438;7.026;2022-07-10T00:15:52;14.70;99.90
16435;DHT22;8327;51.438;7.026;2022-07-10T00:16:52;14.70;99.90
16435;DHT22;8327;51.438;7.026;2022-07-10T00:17:53;14.70;99.90
16435;DHT22;8327;51.438;7.026;2022-07-10T00:18:53;14.80;99.90
16435;DHT22;8327;51.438;7.026;2022-07-10T00:19:54;14.80;99.90
16435;DHT22;8327;51.438;7.026;2022-07-10T00:20:54;14.80;99.90
16435;DHT22;8327;51.438;7.026;2022-07-10T00:21:55;15.30;99.90
16435;DHT22;8327;51.438;7.026;2022-07-10T00:22:55;14.90;99.90
16435;DHT22;8327;51.438;7.026;2022-07-10T00:23:56;15.00;99.90
16435;DHT22;8327;51.438;7.026;2022-07-10T00:24:56;15.00;99.90
16435;DHT22;8327;51.438;7.026;2022-07-10T00:25:57;15.00;99.90
16435;DHT22;8327;51.438;7.026;2022-07-10T00:26:58;15.00;99.90
16435;DHT22;8327;51.438;7.026;2022-07-10T00:27:58;15.00;99.90
16435;DHT22;8327;51.438;7.026;2022-07-10T00:28:59;15.00;99.90
16435;DHT22;8327;51.438;7.026;2022-07-10T00:30:00;14.90;99.90
16435;DHT22;8327;51.438;7.026;2022-07-10T00:31:01;14.80;99.90
16435;DHT22;8327;51.438;7.026;2022-07-10T00:32:02;14.90;99.90
16435;DHT22;8327;51.438;7.026;2022-07-10T00:33:02;14.90;99.90
16435;DHT22;8327;51.438;7.026;2022-07-10T00:34:03;14.80;99.90
16435;DHT22;8327;51.438;7.026;2022-07-10T00:35:04;14.80;99.90
16435;DHT22;8327;51.438;7.026;2022-07-10T00:36:05;14.80;99.90
16435;DHT22;8327;51.438;7.026;2022-07-10T00:37:05;14.90;99.90
16435;DHT22;8327;51.438;7.026;2022-07-10T00:38:06;14.90;99.90
16435;DHT22;8327;51.438;7.026;2022-07-10T00:39:06;14.90;99.90
16435;DHT22;8327;51.438;7.026;2022-07-10T00:40:07;14.80;99.90
16435;DHT22;8327;51.438;7.026;2022-07-10T00:41:08;14.90;99.90
16435;DHT22;8327;51.438;7.026;2022-07-10T00:42:09;15.30;99.90
16435;DHT22;8327;51.438;7.026;2022-07-10T00:43:09;15.10;99.90
16435;DHT22;8327;51.438;7.026;2022-07-10T00:44:10;15.00;99.90
16435;DHT22;8327;51.438;7.026;2022-07-10T00:45:10;15.10;99.90
16435;DHT22;8327;51.438;7.026;2022-07-10T00:46:11;15.10;99.90
16435;DHT22;8327;51.438;7.026;2022-07-10T00:47:12;15.20;99.90
16435;DHT22;8327;51.438;7.026;2022-07-10T00:48:14;15.10;99.90
16435;DHT22;8327;51.438;7.026;2022-07-10T00:49:14;15.00;99.90
16435;DHT22;8327;51.438;7.026;2022-07-10T00:50:15;15.00;99.90
16435;DHT22;8327;51.438;7.026;2022-07-10T00:51:16;15.00;99.90
16435;DHT22;8327;51.438;7.026;2022-07-10T00:52:17;15.00;99.90
16435;DHT22;8327;51.438;7.026;2022-07-10T00:53:17;15.00;99.90
16435;DHT22;8327;51.438;7.026;2022-07-10T00:54:18;15.00;99.90
16435;DHT22;8327;51.438;7.026;2022-07-10T00:55:18;15.10;99.90
16435;DHT22;8327;51.438;7.026;2022-07-10T00:56:20;15.10;99.90
16435;DHT22;8327;51.438;7.026;2022-07-10T00:57:21;15.10;99.90
16435;DHT22;8327;51.438;7.026;2022-07-10T00:58:22;15.00;99.90
16435;DHT22;8327;51.438;7.026;2022-07-10T00:59:23;15.10;99.90
16435;DHT22;8327;51.438;7.026;2022-07-10T01:00:24;15.00;99.90
16435;DHT22;8327;51.438;7.026;2022-07-10T01:01:25;15.00;99.90
16435;DHT22;8327;51.438;7.026;2022-07-10T01:02:25;15.10;99.90
16435;DHT22;8327;51.438;7.026;2022-07-10T01:03:26;15.00;99.90
16435;DHT22;8327;51.438;7.026;2022-07-10T01:04:27;14.90;99.90
16435;DHT22;8327;51.438;7.026;2022-07-10T01:05:27;14.90;99.90
16435;DHT22;8327;51.438;7.026;2022-07-10T01:06:27;14.90;99.90
16435;DHT22;8327;51.438;7.026;2022-07-10T01:07:28;14.90;99.90
16435;DHT22;8327;51.438;7.026;2022-07-10T01:08:28;14.90;99.90
16435;DHT22;8327;51.438;7.026;2022-07-10T01:09:29;14.90;99.90
16435;DHT22;8327;51.438;7.026;2022-07-10T01:10:30;14.90;99.90
16435;DHT22;8327;51.438;7.026;2022-07-10T01:11:31;15.00;99.90
16435;DHT22;8327;51.438;7.026;2022-07-10T01:12:33;15.00;99.90
16435;DHT22;8327;51.438;7.026;2022-07-10T01:13:34;15.00;99.90
16435;DHT22;8327;51.438;7.026;2022-07-10T01:14:35;15.10;99.90
16435;DHT22;8327;51.438;7.026;2022-07-10T01:15:40;15.00;99.90
16435;DHT22;8327;51.438;7.026;2022-07-10T01:16:40;15.10;99.90
16435;DHT22;8327;51.438;7.026;2022-07-10T01:17:41;15.10;99.90
16435;DHT22;8327;51.438;7.026;2022-07-10T01:18:41;15.10;99.90
16435;DHT22;8327;51.438;7.026;2022-07-10T01:19:42;15.00;99.90
16435;DHT22;8327;51.438;7.026;2022-07-10T01:20:42;15.30;99.90
16435;DHT22;8327;51.438;7.026;2022-07-10T01:21:43;15.00;99.90
16435;DHT22;8327;51.438;7.026;2022-07-10T01:22:43;14.90;99.90
16435;DHT22;8327;51.438;7.026;2022-07-10T01:23:44;14.90;99.90
16435;DHT22;8327;51.438;7.026;2022-07-10T01:24:44;14.70;99.90
16435;DHT22;8327;51.438;7.026;2022-07-10T01:25:45;14.80;99.90
16435;DHT22;8327;51.438;7.026;2022-07-10T01:26:45;14.70;99.90
16435;DHT22;8327;51.438;7.026;2022-07-10T01:27:46;14.80;99.90
16435;DHT22;8327;51.438;7.026;2022-07-10T01:28:50;14.80;99.90
16435;DHT22;8327;51.438;7.026;2022-07-10T01:29:51;14.90;99.90
16435;DHT22;8327;51.438;7.026;2022-07-10T01:30:54;14.90;99.90
16435;DHT22;8327;51.438;7.026;2022-07-10T01:31:54;14.90;99.90
16435;DHT22;8327;51.438;7.026;2022-07-10T01:32:55;14.80;99.90
16435;DHT22;8327;51.438;7.026;2022-07-10T01:33:55;14.80;99.90
16435;DHT22;8327;51.438;7.026;2022-07-10T01:34:56;14.80;99.90
16435;DHT22;8327;51.438;7.026;2022-07-10T01:35:56;14.90;99.90
16435;DHT22;8327;51.438;7.026;2022-07-10T01:36:57;14.60;99.90
16435;DHT22;8327;51.438;7.026;2022-07-10T01:37:57;15.00;99.90
16435;DHT22;8327;51.438;7.026;2022-07-10T01:38:58;15.00;99.90
16435;DHT22;8327;51.438;7.026;2022-07-10T01:39:59;15.10;99.90
16435;DHT22;8327;51.438;7.026;2022-07-10T01:40:59;15.00;99.90
16435;DHT22;8327;51.438;7.026;2022-07-10T01:42:00;15.00;99.90
16435;DHT22;8327;51.438;7.026;2022-07-10T01:43:00;15.00;99.90
16435;DHT22;8327;51.438;7.026;2022-07-10T01:44:01;15.10;99.90
16435;DHT22;8327;51.438;7.026;2022-07-10T01:45:01;15.10;99.90
16435;DHT22;8327;51.438;7.026;2022-07-10T01:46:02;15.20;99.90
16435;DHT22;8327;51.438;7.026;2022-07-10T01:47:03;15.20;99.90
16435;DHT22;8327;51.438;7.026;2022-07-10T01:48:04;15.20;99.90
16435;DHT22;8327;51.438;7.026;2022-07-10T01:49:04;15.10;99.90
16435;DHT22;8327;51.438;7.026;2022-07-10T01:50:05;15.10;99.90
16435;DHT22;8327;51.438;7.026;2022-07-10T01:51:06;15.00;99.90
16435;DHT22;8327;51.438;7.026;2022-07-10T01:52:06;15.00;99.90
16435;DHT22;8327;51.438;7.026;2022-07-10T01:53:07;15.00;99.90
16435;DHT22;8327;51.438;7.026;2022-07-10T01:54:07;15.00;99.90
16435;DHT22;8327;51.438;7.026;2022-07-10T01:55:08;15.00;99.90
16435;DHT22;8327;51.438;7.026;2022-07-10T01:56:10;15.00;99.90
16435;DHT22;8327;51.438;7.026;2022-07-10T01:57:11;15.00;99.90
16435;DHT22;8327;51.438;7.026;2022-07-10T01:58:11;15.00;99.90
16435;DHT22;8327;51.438;7.026;2022-07-10T01:59:11;14.90;99.90
16435;DHT22;8327;51.438;7.026;2022-07-10T02:00:12;14.90;99.90
16435;DHT22;8327;51.438;7.026;2022-07-10T02:01:12;14.90;99.90
16435;DHT22;8327;51.438;7.026;2022-07-10T02:02:13;14.90;99.90
16435;DHT22;8327;51.438;7.026;2022-07-10T02:03:13;14.90;99.90
16435;DHT22;8327;51.438;7.026;2022-07-10T02:04:33;14.90;99.90
16435;DHT22;8327;51.438;7.026;2022-07-10T02:05:42;14.90;99.90
16435;DHT22;8327;51.438;7.026;2022-07-10T02:06:43;14.80;99.90
16435;DHT22;8327;51.438;7.026;2022-07-10T02:07:43;14.80;99.90
16435;DHT22;8327;51.438;7.026;2022-07-10T02:08:44;14.80;99.90
16435;DHT22;8327;51.438;7.026;2022-07-10T02:09:44;14.70;99.90
16435;DHT22;8327;51.438;7.026;2022-07-10T02:10:45;14.70;99.90
16435;DHT22;8327;51.438;7.026;2022-07-10T02:11:45;14.70;99.90
16435;DHT22;8327;51.438;7.026;2022-07-10T02:12:46;14.70;99.90
16435;DHT22;8327;51.438;7.026;2022-07-10T02:13:46;14.70;99.90
16435;DHT22;8327;51.438;7.026;2022-07-10T02:14:47;14.60;99.90
16435;DHT22;8327;51.438;7.026;2022-07-10T02:15:47;14.70;99.90
16435;DHT22;8327;51.438;7.026;2022-07-10T02:16:48;14.60;99.90
16435;DHT22;8327;51.438;7.026;2022-07-10T02:17:48;14.50;99.90
16435;DHT22;8327;51.438;7.026;2022-07-10T02:18:49;14.50;99.90
16435;DHT22;8327;51.438;7.026;2022-07-10T02:19:49;14.50;99.90
16435;DHT22;8327;51.438;7.026;2022-07-10T02:20:50;14.80;99.90
16435;DHT22;8327;51.438;7.026;2022-07-10T02:21:51;14.60;99.90
16435;DHT22;8327;51.438;7.026;2022-07-10T02:22:52;14.60;99.90
16435;DHT22;8327;51.438;7.026;2022-07-10T02:23:52;14.70;99.90
16435;DHT22;8327;51.438;7.026;2022-07-10T02:24:52;14.60;99.90
16435;DHT22;8327;51.438;7.026;2022-07-10T02:25:53;14.60;99.90
16435;DHT22;8327;51.438;7.026;2022-07-10T02:26:54;14.70;99.90
16435;DHT22;8327;51.438;7.026;2022-07-10T02:27:55;14.70;99.90
16435;DHT22;8327;51.438;7.026;2022-07-10T02:28:56;14.70;99.90
16435;DHT22;8327;51.438;7.026;2022-07-10T02:29:56;14.70;99.90
16435;DHT22;8327;51.438;7.026;2022-07-10T02:30:57;14.70;99.90
16435;DHT22;8327;51.438;7.026;2022-07-10T02:31:57;14.70;99.90
16435;DHT22;8327;51.438;7.026;2022-07-10T02:32:58;14.70;99.90
16435;DHT22;8327;51.438;7.026;2022-07-10T02:33:58;14.60;99.90
16435;DHT22;8327;51.438;7.026;2022-07-10T02:34:59;14.60;99.90
16435;DHT22;8327;51.438;7.026;2022-07-10T02:35:59;14.70;99.90
16435;DHT22;8327;51.438;7.026;2022-07-10T02:36:59;14.60;99.90
16435;DHT22;8327;51.438;7.026;2022-07-10T02:38:00;14.60;99.90
16435;DHT22;8327;51.438;7.026;2022-07-10T02:39:00;14.60;99.90
16435;DHT22;8327;51.438;7.026;2022-07-10T02:40:01;14.50;99.90
16435;DHT22;8327;51.438;7.026;2022-07-10T02:41:01;14.50;99.90
16435;DHT22;8327;51.438;7.026;2022-07-10T02:42:02;14.50;99.90
16435;DHT22;8327;51.438;7.026;2022-07-10T02:43:02;14.60;99.90
16435;DHT22;8327;51.438;7.026;2022-07-10T02:44:03;14.80;99.90
16435;DHT22;8327;51.438;7.026;2022-07-10T02:45:04;14.60;99.90
16435;DHT22;8327;51.438;7.026;2022-07-10T02:46:04;14.60;99.90
16435;DHT22;8327;51.438;7.026;2022-07-10T02:47:05;14.60;99.90
16435;DHT22;8327;51.438;7.026;2022-07-10T02:48:05;14.70;99.90
16435;DHT22;8327;51.438;7.026;2022-07-10T02:49:06;14.70;99.90
16435;DHT22;8327;51.438;7.026;2022-07-10T02:50:07;14.60;99.90
16435;DHT22;8327;51.438;7.026;2022-07-10T02:51:07;14.70;99.90
16435;DHT22;8327;51.438;7.026;2022-07-10T02:52:08;14.60;99.90
16435;DHT22;8327;51.438;7.026;2022-07-10T02:53:08;14.60;99.90
16435;DHT22;8327;51.438;7.026;2022-07-10T02:54:08;14.60;99.90
16435;DHT22;8327;51.438;7.026;2022-07-10T02:55:09;14.70;99.90
16435;DHT22;8327;51.438;7.026;2022-07-10T02:56:09;14.60;99.90
16435;DHT22;8327;51.438;7.026;2022-07-10T02:57:10;14.60;99.90
16435;DHT22;8327;51.438;7.026;2022-07-10T02:58:10;14.60;99.90
16435;DHT22;8327;51.438;7.026;2022-07-10T02:59:11;14.50;99.90
16435;DHT22;8327;51.438;7.026;2022-07-10T03:00:11;14.50;99.90
16435;DHT22;8327;51.438;7.026;2022-07-10T03:01:12;14.50;99.90
16435;DHT22;8327;51.438;7.026;2022-07-10T03:02:12;14.40;99.90
16435;DHT22;8327;51.438;7.026;2022-07-10T03:03:13;14.40;99.90
16435;DHT22;8327;51.438;7.026;2022-07-10T03:04:13;14.50;99.90
16435;DHT22;8327;51.438;7.026;2022-07-10T03:05:14;14.50;99.90
16435;DHT22;8327;51.438;7.026;2022-07-10T03:06:14;14.40;99.90
16435;DHT22;8327;51.438;7.026;2022-07-10T03:07:15;14.40;99.90
16435;DHT22;8327;51.438;7.026;2022-07-10T03:08:15;14.50;99.90
16435;DHT22;8327;51.438;7.026;2022-07-10T03:09:16;14.60;99.90
16435;DHT22;8327;51.438;7.026;2022-07-10T03:10:16;14.60;99.90
16435;DHT22;8327;51.438;7.026;2022-07-10T03:11:16;14.60;99.90
16435;DHT22;8327;51.438;7.026;2022-07-10T03:12:17;14.60;99.90
16435;DHT22;8327;51.438;7.026;2022-07-10T03:13:17;14.60;99.90
16435;DHT22;8327;51.438;7.026;2022-07-10T03:14:18;14.60;99.90
16435;DHT22;8327;51.438;7.026;2022-07-10T03:15:18;14.60;99.90
16435;DHT22;8327;51.438;7.026;2022-07-10T03:16:19;14.60;99.90
16435;DHT22;8327;51.438;7.026;2022-07-10T03:17:19;14.60;99.90
16435;DHT22;8327;51.438;7.026;2022-07-10T03:18:20;14.60;99.90
16435;DHT22;8327;51.438;7.026;2022-07-10T03:19:20;14.60;99.90
16435;DHT22;8327;51.438;7.026;2022-07-10T03:20:21;14.60;99.90
16435;DHT22;8327;51.438;7.026;2022-07-10T03:21:21;14.50;99.90
16435;DHT22;8327;51.438;7.026;2022-07-10T03:22:22;14.50;99.90
16435;DHT22;8327;51.438;7.026;2022-07-10T03:23:22;14.40;99.90
16435;DHT22;8327;51.438;7.026;2022-07-10T03:24:23;14.40;99.90
16435;DHT22;8327;51.438;7.026;2022-07-10T03:25:23;14.40;99.90
16435;DHT22;8327;51.438;7.026;2022-07-10T03:26:23;14.40;99.90
16435;DHT22;8327;51.438;7.026;2022-07-10T03:27:24;14.30;99.90
16435;DHT22;8327;51.438;7.026;2022-07-10T03:28:25;14.30;99.90
16435;DHT22;8327;51.438;7.026;2022-07-10T03:29:25;14.30;99.90
16435;DHT22;8327;51.438;7.026;2022-07-10T03:30:25;14.30;99.90
16435;DHT22;8327;51.438;7.026;2022-07-10T03:31:26;14.20;99.90
16435;DHT22;8327;51.438;7.026;2022-07-10T03:32:26;14.20;99.90
16435;DHT22;8327;51.438;7.026;2022-07-10T03:33:27;14.20;99.90
16435;DHT22;8327;51.438;7.026;2022-07-10T03:34:27;14.20;99.90
16435;DHT22;8327;51.438;7.026;2022-07-10T03:35:28;14.10;99.90
16435;DHT22;8327;51.438;7.026;2022-07-10T03:36:31;14.10;99.90
16435;DHT22;8327;51.438;7.026;2022-07-10T03:37:31;14.10;99.90
16435;DHT22;8327;51.438;7.026;2022-07-10T03:38:32;14.10;99.90
16435;DHT22;8327;51.438;7.026;2022-07-10T03:39:33;14.10;99.90
16435;DHT22;8327;51.438;7.026;2022-07-10T03:40:33;14.10;99.90
16435;DHT22;8327;51.438;7.026;2022-07-10T03:41:34;14.00;99.90
16435;DHT22;8327;51.438;7.026;2022-07-10T03:42:34;14.00;99.90
16435;DHT22;8327;51.438;7.026;2022-07-10T03:43:35;14.00;99.90
16435;DHT22;8327;51.438;7.026;2022-07-10T03:44:35;14.00;99.90
16435;DHT22;8327;51.438;7.026;2022-07-10T03:45:36;14.00;99.90
16435;DHT22;8327;51.438;7.026;2022-07-10T03:46:36;14.00;99.90
16435;DHT22;8327;51.438;7.026;2022-07-10T03:47:37;14.10;99.90
16435;DHT22;8327;51.438;7.026;2022-07-10T03:48:37;14.10;99.90
16435;DHT22;8327;51.438;7.026;2022-07-10T03:49:37;14.10;99.90
16435;DHT22;8327;51.438;7.026;2022-07-10T03:50:41;14.20;99.90
16435;DHT22;8327;51.438;7.026;2022-07-10T03:51:42;14.20;99.90
16435;DHT22;8327;51.438;7.026;2022-07-10T03:52:42;14.20;99.90
16435;DHT22;8327;51.438;7.026;2022-07-10T03:53:44;14.20;99.90
16435;DHT22;8327;51.438;7.026;2022-07-10T03:54:45;14.20;99.90
16435;DHT22;8327;51.438;7.026;2022-07-10T03:55:45;14.10;99.90
16435;DHT22;8327;51.438;7.026;2022-07-10T03:56:46;14.10;99.90
16435;DHT22;8327;51.438;7.026;2022-07-10T03:58:05;14.10;99.90
16435;DHT22;8327;51.438;7.026;2022-07-10T03:59:05;14.10;99.90
16435;DHT22;8327;51.438;7.026;2022-07-10T04:00:06;14.00;99.90
16435;DHT22;8327;51.438;7.026;2022-07-10T04:01:07;13.90;99.90
16435;DHT22;8327;51.438;7.026;2022-07-10T04:02:07;13.80;99.90
16435;DHT22;8327;51.438;7.026;2022-07-10T04:03:08;13.90;99.90
16435;DHT22;8327;51.438;7.026;2022-07-10T04:04:08;13.90;99.90
16435;DHT22;8327;51.438;7.026;2022-07-10T04:05:09;13.90;99.90
16435;DHT22;8327;51.438;7.026;2022-07-10T04:06:09;14.00;99.90
16435;DHT22;8327;51.438;7.026;2022-07-10T04:07:10;14.00;99.90
16435;DHT22;8327;51.438;7.026;2022-07-10T04:08:12;14.00;99.90
16435;DHT22;8327;51.438;7.026;2022-07-10T04:09:13;13.90;99.90
16435;DHT22;8327;51.438;7.026;2022-07-10T04:10:13;14.00;99.90
16435;DHT22;8327;51.438;7.026;2022-07-10T04:11:14;14.00;99.90
16435;DHT22;8327;51.438;7.026;2022-07-10T04:12:14;14.00;99.90
16435;DHT22;8327;51.438;7.026;2022-07-10T04:13:14;14.00;99.90
16435;DHT22;8327;51.438;7.026;2022-07-10T04:14:15;14.00;99.90
16435;DHT22;8327;51.438;7.026;2022-07-10T04:15:15;14.10;99.90
16435;DHT22;8327;51.438;7.026;2022-07-10T04:16:16;14.10;99.90
16435;DHT22;8327;51.438;7.026;2022-07-10T04:17:17;14.10;99.90
16435;DHT22;8327;51.438;7.026;2022-07-10T04:18:17;14.20;99.90
16435;DHT22;8327;51.438;7.026;2022-07-10T04:19:18;14.20;99.90
16435;DHT22;8327;51.438;7.026;2022-07-10T04:20:18;14.20;99.90
16435;DHT22;8327;51.438;7.026;2022-07-10T04:21:19;14.10;99.90
16435;DHT22;8327;51.438;7.026;2022-07-10T04:22:19;14.10;99.90
16435;DHT22;8327;51.438;7.026;2022-07-10T04:23:20;14.10;99.90
16435;DHT22;8327;51.438;7.026;2022-07-10T04:24:20;14.10;99.90
16435;DHT22;8327;51.438;7.026;2022-07-10T04:25:21;14.20;99.90
16435;DHT22;8327;51.438;7.026;2022-07-10T04:26:21;14.10;99.90
16435;DHT22;8327;51.438;7.026;2022-07-10T04:27:22;14.10;99.90
16435;DHT22;8327;51.438;7.026;2022-07-10T04:28:22;14.10;99.90
16435;DHT22;8327;51.438;7.026;2022-07-10T04:29:23;14.00;99.90
16435;DHT22;8327;51.438;7.026;2022-07-10T04:30:23;14.10;99.90
16435;DHT22;8327;51.438;7.026;2022-07-10T04:31:23;14.00;99.90
16435;DHT22;8327;51.438;7.026;2022-07-10T04:32:24;14.10;99.90
16435;DHT22;8327;51.438;7.026;2022-07-10T04:33:25;14.10;99.90
16435;DHT22;8327;51.438;7.026;2022-07-10T04:34:25;14.10;99.90
16435;DHT22;8327;51.438;7.026;2022-07-10T04:35:26;14.10;99.90
16435;DHT22;8327;51.438;7.026;2022-07-10T04:36:26;14.10;99.90
16435;DHT22;8327;51.438;7.026;2022-07-10T04:37:27;14.10;99.90
16435;DHT22;8327;51.438;7.026;2022-07-10T04:38:28;14.10;99.90
16435;DHT22;8327;51.438;7.026;2022-07-10T04:39:29;14.10;99.90
16435;DHT22;8327;51.438;7.026;2022-07-10T04:40:29;14.20;99.90
16435;DHT22;8327;51.438;7.026;2022-07-10T04:41:30;14.20;99.90
16435;DHT22;8327;51.438;7.026;2022-07-10T04:42:30;14.20;99.90
16435;DHT22;8327;51.438;7.026;2022-07-10T04:43:30;14.20;99.90
16435;DHT22;8327;51.438;7.026;2022-07-10T04:44:31;14.20;99.90
16435;DHT22;8327;51.438;7.026;2022-07-10T04:45:32;14.20;99.90
16435;DHT22;8327;51.438;7.026;2022-07-10T04:46:32;14.00;99.90
16435;DHT22;8327;51.438;7.026;2022-07-10T04:47:33;14.10;99.90
16435;DHT22;8327;51.438;7.026;2022-07-10T04:48:33;14.10;99.90
16435;DHT22;8327;51.438;7.026;2022-07-10T04:49:34;14.20;99.90
16435;DHT22;8327;51.438;7.026;2022-07-10T04:50:34;14.20;99.90
16435;DHT22;8327;51.438;7.026;2022-07-10T04:51:35;14.10;99.90
16435;DHT22;8327;51.438;7.026;2022-07-10T04:52:35;14.10;99.90
16435;DHT22;8327;51.438;7.026;2022-07-10T04:53:36;14.10;99.90
16435;DHT22;8327;51.438;7.026;2022-07-10T04:54:36;14.20;99.90
16435;DHT22;8327;51.438;7.026;2022-07-10T04:55:37;14.20;99.90
16435;DHT22;8327;51.438;7.026;2022-07-10T04:56:37;14.30;99.90
16435;DHT22;8327;51.438;7.026;2022-07-10T04:57:38;14.40;99.90
16435;DHT22;8327;51.438;7.026;2022-07-10T04:58:39;14.30;99.90
16435;DHT22;8327;51.438;7.026;2022-07-10T04:59:39;14.40;99.90
16435;DHT22;8327;51.438;7.026;2022-07-10T05:00:40;14.40;99.90
16435;DHT22;8327;51.438;7.026;2022-07-10T05:01:40;14.30;99.90
16435;DHT22;8327;51.438;7.026;2022-07-10T05:02:41;14.40;99.90
16435;DHT22;8327;51.438;7.026;2022-07-10T05:03:42;14.40;99.90
16435;DHT22;8327;51.438;7.026;2022-07-10T05:04:42;14.40;99.90
16435;DHT22;8327;51.438;7.026;2022-07-10T05:05:43;14.30;99.90
16435;DHT22;8327;51.438;7.026;2022-07-10T05:06:43;14.30;99.90
16435;DHT22;8327;51.438;7.026;2022-07-10T05:07:44;14.30;99.90
16435;DHT22;8327;51.438;7.026;2022-07-10T05:08:44;14.40;99.90
16435;DHT22;8327;51.438;7.026;2022-07-10T05:09:45;14.30;99.90
16435;DHT22;8327;51.438;7.026;2022-07-10T05:10:45;14.30;99.90
16435;DHT22;8327;51.438;7.026;2022-07-10T05:11:46;14.40;99.90
16435;DHT22;8327;51.438;7.026;2022-07-10T05:12:47;14.40;99.90
16435;DHT22;8327;51.438;7.026;2022-07-10T05:13:47;14.40;99.90
16435;DHT22;8327;51.438;7.026;2022-07-10T05:14:48;14.40;99.90
16435;DHT22;8327;51.438;7.026;2022-07-10T05:15:49;14.30;99.90
16435;DHT22;8327;51.438;7.026;2022-07-10T05:16:50;14.30;99.90
16435;DHT22;8327;51.438;7.026;2022-07-10T05:17:50;14.30;99.90
16435;DHT22;8327;51.438;7.026;2022-07-10T05:18:51;14.20;99.90
16435;DHT22;8327;51.438;7.026;2022-07-10T05:19:51;14.20;99.90
16435;DHT22;8327;51.438;7.026;2022-07-10T05:20:53;14.20;99.90
16435;DHT22;8327;51.438;7.026;2022-07-10T05:21:54;14.30;99.90
16435;DHT22;8327;51.438;7.026;2022-07-10T05:22:55;14.30;99.90
16435;DHT22;8327;51.438;7.026;2022-07-10T05:23:56;14.30;99.90
16435;DHT22;8327;51.438;7.026;2022-07-10T05:24:56;14.30;99.90
16435;DHT22;8327;51.438;7.026;2022-07-10T05:25:57;14.40;99.90
16435;DHT22;8327;51.438;7.026;2022-07-10T05:26:57;14.40;99.90
16435;DHT22;8327;51.438;7.026;2022-07-10T05:27:58;14.40;99.90
16435;DHT22;8327;51.438;7.026;2022-07-10T05:28:58;14.40;99.90
16435;DHT22;8327;51.438;7.026;2022-07-10T05:29:59;14.30;99.90
16435;DHT22;8327;51.438;7.026;2022-07-10T05:30:59;14.40;99.90
16435;DHT22;8327;51.438;7.026;2022-07-10T05:31:59;14.40;99.90
16435;DHT22;8327;51.438;7.026;2022-07-10T05:33:00;14.40;99.90
16435;DHT22;8327;51.438;7.026;2022-07-10T05:34:00;14.50;99.90
16435;DHT22;8327;51.438;7.026;2022-07-10T05:35:01;14.60;99.90
16435;DHT22;8327;51.438;7.026;2022-07-10T05:36:01;14.70;99.90
16435;DHT22;8327;51.438;7.026;2022-07-10T05:37:02;14.70;99.90
16435;DHT22;8327;51.438;7.026;2022-07-10T05:38:02;14.90;99.90
16435;DHT22;8327;51.438;7.026;2022-07-10T05:39:03;15.00;99.90
16435;DHT22;8327;51.438;7.026;2022-07-10T05:40:04;15.00;99.90
16435;DHT22;8327;51.438;7.026;2022-07-10T05:41:04;15.00;99.90
16435;DHT22;8327;51.438;7.026;2022-07-10T05:42:05;15.00;99.90
16435;DHT22;8327;51.438;7.026;2022-07-10T05:43:05;15.00;99.90
16435;DHT22;8327;51.438;7.026;2022-07-10T05:44:06;15.00;99.90
16435;DHT22;8327;51.438;7.026;2022-07-10T05:45:06;15.10;99.90
16435;DHT22;8327;51.438;7.026;2022-07-10T05:46:07;15.20;99.90
16435;DHT22;8327;51.438;7.026;2022-07-10T05:47:07;15.10;99.90
16435;DHT22;8327;51.438;7.026;2022-07-10T05:48:08;15.20;99.90
16435;DHT22;8327;51.438;7.026;2022-07-10T05:49:08;15.10;99.90
16435;DHT22;8327;51.438;7.026;2022-07-10T05:50:09;14.90;99.90
16435;DHT22;8327;51.438;7.026;2022-07-10T05:51:09;14.90;99.90
16435;DHT22;8327;51.438;7.026;2022-07-10T05:52:10;14.90;99.90
16435;DHT22;8327;51.438;7.026;2022-07-10T05:53:12;15.00;99.90
16435;DHT22;8327;51.438;7.026;2022-07-10T05:54:12;14.90;99.90
16435;DHT22;8327;51.438;7.026;2022-07-10T05:55:13;15.00;99.90
16435;DHT22;8327;51.438;7.026;2022-07-10T05:56:14;15.00;99.90
16435;DHT22;8327;51.438;7.026;2022-07-10T05:57:15;15.00;99.90
16435;DHT22;8327;51.438;7.026;2022-07-10T05:58:15;15.10;99.90
16435;DHT22;8327;51.438;7.026;2022-07-10T05:59:16;15.00;99.90
16435;DHT22;8327;51.438;7.026;2022-07-10T06:00:16;15.10;99.90
16435;DHT22;8327;51.438;7.026;2022-07-10T06:01:17;15.10;99.90
16435;DHT22;8327;51.438;7.026;2022-07-10T06:02:17;15.00;99.90
16435;DHT22;8327;51.438;7.026;2022-07-10T06:03:18;15.10;99.90
16435;DHT22;8327;51.438;7.026;2022-07-10T06:04:18;15.10;99.90
16435;DHT22;8327;51.438;7.026;2022-07-10T06:05:19;15.10;99.90
16435;DHT22;8327;51.438;7.026;2022-07-10T06:06:19;15.10;99.90
16435;DHT22;8327;51.438;7.026;2022-07-10T06:07:20;15.10;99.90
16435;DHT22;8327;51.438;7.026;2022-07-10T06:08:20;15.20;99.90
16435;DHT22;8327;51.438;7.026;2022-07-10T06:09:21;15.30;99.90
16435;DHT22;8327;51.438;7.026;2022-07-10T06:10:21;15.30;99.90
16435;DHT22;8327;51.438;7.026;2022-07-10T06:11:22;15.40;99.90
16435;DHT22;8327;51.438;7.026;2022-07-10T06:12:22;15.60;99.90
16435;DHT22;8327;51.438;7.026;2022-07-10T06:13:22;15.40;99.90
16435;DHT22;8327;51.438;7.026;2022-07-10T06:14:23;15.40;99.90
16435;DHT22;8327;51.438;7.026;2022-07-10T06:15:23;15.50;99.90
16435;DHT22;8327;51.438;7.026;2022-07-10T06:16:24;15.50;99.90
16435;DHT22;8327;51.438;7.026;2022-07-10T06:17:24;15.60;99.90
16435;DHT22;8327;51.438;7.026;2022-07-10T06:18:25;15.60;99.90
16435;DHT22;8327;51.438;7.026;2022-07-10T06:19:25;15.60;99.90
16435;DHT22;8327;51.438;7.026;2022-07-10T06:20:26;15.70;99.90
16435;DHT22;8327;51.438;7.026;2022-07-10T06:21:26;15.60;99.90
16435;DHT22;8327;51.438;7.026;2022-07-10T06:22:27;15.60;99.90
16435;DHT22;8327;51.438;7.026;2022-07-10T06:23:30;15.60;99.90
16435;DHT22;8327;51.438;7.026;2022-07-10T06:24:31;15.60;99.90
16435;DHT22;8327;51.438;7.026;2022-07-10T06:25:31;15.60;99.90
16435;DHT22;8327;51.438;7.026;2022-07-10T06:26:31;15.50;99.90
16435;DHT22;8327;51.438;7.026;2022-07-10T06:27:32;15.30;99.90
16435;DHT22;8327;51.438;7.026;2022-07-10T06:28:36;15.40;99.90
16435;DHT22;8327;51.438;7.026;2022-07-10T06:29:36;15.30;99.90